createdAt,value
2022-07-29T00:02:06.357Z,99476.34
2022-07-29T00:04:36.242Z,99478.84
2022-07-29T00:07:06.611Z,99479.28
2022-07-29T00:09:33.858Z,99484.63
2022-07-29T00:12:25.569Z,99484.16
2022-07-29T00:14:55.740Z,99493.50
2022-07-29T00:17:23.933Z,99488.44
2022-07-29T00:19:51.025Z,99481.94
2022-07-29T00:22:18.122Z,99484.75
2022-07-29T00:24:45.376Z,99480.59
2022-07-29T00:27:14.604Z,99481.47
2022-07-29T00:29:41.604Z,99468.75
2022-07-29T00:32:13.365Z,99472.72
2022-07-29T00:34:59.804Z,99475.22
2022-07-29T00:37:27.118Z,99475.09
2022-07-29T00:39:54.175Z,99466.38
2022-07-29T00:42:21.208Z,99461.63
2022-07-29T00:44:48.385Z,99461.13
2022-07-29T00:47:15.482Z,99470.41
2022-07-29T00:49:43.570Z,99468.03
2022-07-29T00:52:17.073Z,99464.94
2022-07-29T00:54:45.093Z,99468.78
2022-07-29T00:57:14.144Z,99467.69
2022-07-29T00:59:43.803Z,99464.44
2022-07-29T01:02:13.068Z,99467.38
2022-07-29T01:04:40.508Z,99452.31
2022-07-29T01:07:11.248Z,99459.50
2022-07-29T01:09:46.844Z,99452.97
2022-07-29T01:12:18.423Z,99462.41
2022-07-29T01:14:50.398Z,99456.88
2022-07-29T01:17:52.706Z,99457.03
2022-07-29T01:20:31.474Z,99450.34
2022-07-29T01:23:08.460Z,99449.28
2022-07-29T01:26:12.988Z,99445.28
2022-07-29T01:28:53.761Z,99450.97
2022-07-29T01:31:29.652Z,99448.00
2022-07-29T01:34:05.626Z,99447.66
2022-07-29T01:36:32.707Z,99453.56
2022-07-29T01:39:27.103Z,99456.53
2022-07-29T01:42:07.127Z,99454.78
2022-07-29T01:44:41.154Z,99451.81
2022-07-29T01:47:21.487Z,99450.00
2022-07-29T01:49:52.665Z,99462.97
2022-07-29T01:52:32.402Z,99454.66
2022-07-29T01:55:08.872Z,99455.47
2022-07-29T01:57:39.076Z,99463.72
2022-07-29T02:00:07.267Z,99463.97
2022-07-29T02:02:44.680Z,99457.31
2022-07-29T02:05:16.058Z,99445.94
2022-07-29T02:07:46.855Z,99454.91
2022-07-29T02:10:21.765Z,99456.03
2022-07-29T02:12:55.160Z,99456.88
2022-07-29T02:15:27.636Z,99450.94
2022-07-29T02:18:05.128Z,99450.59
2022-07-29T02:20:33.506Z,99457.69
2022-07-29T02:23:03.429Z,99460.16
2022-07-29T02:25:37.529Z,99468.56
2022-07-29T02:28:08.910Z,99461.03
2022-07-29T02:30:44.689Z,99463.13
2022-07-29T02:33:17.788Z,99461.78
2022-07-29T02:35:49.733Z,99458.50
2022-07-29T02:38:37.829Z,99451.09
2022-07-29T02:41:09.161Z,99469.03
2022-07-29T02:43:37.015Z,99456.34
2022-07-29T02:46:12.724Z,99458.22
2022-07-29T02:49:14.452Z,99455.44
2022-07-29T02:51:56.781Z,99457.16
2022-07-29T02:54:27.898Z,99449.94
2022-07-29T02:56:59.856Z,99441.19
2022-07-29T02:59:31.773Z,99448.47
2022-07-29T03:02:01.359Z,99436.97
2022-07-29T03:04:30.310Z,99444.28
2022-07-29T03:07:00.555Z,99447.66
2022-07-29T03:09:29.309Z,99435.38
2022-07-29T03:11:58.158Z,99439.66
2022-07-29T03:14:25.452Z,99438.19
2022-07-29T03:16:53.595Z,99441.38
2022-07-29T03:19:21.628Z,99442.53
2022-07-29T03:21:48.965Z,99435.84
2022-07-29T03:24:45.290Z,99441.09
2022-07-29T03:27:14.557Z,99438.56
2022-07-29T03:29:41.655Z,99438.72
2022-07-29T03:32:17.130Z,99430.88
2022-07-29T03:34:50.935Z,99431.47
2022-07-29T03:37:20.371Z,99437.06
2022-07-29T03:39:48.468Z,99432.38
2022-07-29T03:42:21.160Z,99429.59
2022-07-29T03:44:50.033Z,99435.66
2022-07-29T03:47:20.163Z,99430.06
2022-07-29T03:49:52.898Z,99428.59
2022-07-29T03:52:22.493Z,99442.59
2022-07-29T03:54:50.103Z,99431.97
2022-07-29T03:57:17.741Z,99425.22
2022-07-29T03:59:46.330Z,99437.16
2022-07-29T04:02:20.180Z,99443.09
2022-07-29T04:04:49.953Z,99443.44
2022-07-29T04:07:22.743Z,99445.44
2022-07-29T04:09:52.290Z,99442.56
2022-07-29T04:12:19.578Z,99450.34
2022-07-29T04:14:46.903Z,99453.38
2022-07-29T04:17:13.961Z,99448.78
2022-07-29T04:19:41.305Z,99449.03
2022-07-29T04:22:08.482Z,99448.78
2022-07-29T04:24:40.213Z,99445.81
2022-07-29T04:27:12.698Z,99446.94
2022-07-29T04:29:56.268Z,99458.38
2022-07-29T04:32:27.704Z,99454.63
2022-07-29T04:34:54.943Z,99466.81
2022-07-29T04:37:24.150Z,99456.69
2022-07-29T04:39:51.823Z,99466.94
2022-07-29T04:42:26.685Z,99464.69
2022-07-29T04:44:57.178Z,99468.09
2022-07-29T04:47:24.741Z,99478.03
2022-07-29T04:49:54.198Z,99472.47
2022-07-29T04:52:23.780Z,99484.91
2022-07-29T04:54:50.979Z,99486.13
2022-07-29T04:57:20.536Z,99479.19
2022-07-29T04:59:47.803Z,99487.47
2022-07-29T05:02:17.246Z,99483.75
2022-07-29T05:04:44.560Z,99482.69
2022-07-29T05:07:15.442Z,99486.41
2022-07-29T05:09:42.577Z,99482.22
2022-07-29T05:12:10.967Z,99484.88
2022-07-29T05:14:40.981Z,99490.94
2022-07-29T05:17:08.118Z,99491.16
2022-07-29T05:19:39.372Z,99494.63
2022-07-29T05:22:07.702Z,99500.72
2022-07-29T05:24:34.787Z,99504.63
2022-07-29T05:27:01.993Z,99513.47
2022-07-29T05:29:43.282Z,99501.94
2022-07-29T05:32:13.508Z,99509.59
2022-07-29T05:34:50.297Z,99511.31
2022-07-29T05:37:26.024Z,99505.41
2022-07-29T05:39:56.673Z,99506.53
2022-07-29T05:42:27.694Z,99490.84
2022-07-29T05:44:57.424Z,99505.44
2022-07-29T05:47:25.542Z,99502.41
2022-07-29T05:49:52.677Z,99505.50
2022-07-29T05:52:22.301Z,99509.63
2022-07-29T05:54:49.694Z,99512.44
2022-07-29T05:57:21.966Z,99520.53
2022-07-29T05:59:50.260Z,99516.72
2022-07-29T06:02:17.618Z,99516.94
2022-07-29T06:04:45.251Z,99522.81
2022-07-29T06:07:12.607Z,99525.31
2022-07-29T06:09:39.802Z,99522.59
2022-07-29T06:12:06.949Z,99523.25
2022-07-29T06:14:36.926Z,99526.78
2022-07-29T06:17:03.933Z,99529.84
2022-07-29T06:19:31.077Z,99520.47
2022-07-29T06:21:58.750Z,99530.91
2022-07-29T06:24:25.675Z,99518.66
2022-07-29T06:26:52.756Z,99537.31
2022-07-29T06:29:20.022Z,99530.06
2022-07-29T06:31:47.097Z,99533.88
2022-07-29T06:34:17.508Z,99536.41
2022-07-29T06:36:45.111Z,99537.84
2022-07-29T06:39:15.970Z,99542.19
2022-07-29T06:41:43.234Z,99535.13
2022-07-29T06:44:14.327Z,99535.53
2022-07-29T06:46:42.851Z,99534.19
2022-07-29T06:49:10.021Z,99538.25
2022-07-29T06:51:37.363Z,99535.88
2022-07-29T06:54:06.647Z,99541.22
2022-07-29T06:56:39.508Z,99537.34
2022-07-29T06:59:11.212Z,99547.63
2022-07-29T07:01:40.236Z,99553.06
2022-07-29T07:04:07.907Z,99546.03
2022-07-29T07:06:35.580Z,99546.88
2022-07-29T07:09:02.856Z,99542.44
2022-07-29T07:11:29.915Z,99545.75
2022-07-29T07:14:02.582Z,99550.28
2022-07-29T07:16:30.417Z,99543.56
2022-07-29T07:18:57.455Z,99547.97
2022-07-29T07:21:25.075Z,99546.53
2022-07-29T07:23:52.082Z,99543.44
2022-07-29T07:26:21.439Z,99555.28
2022-07-29T07:28:53.203Z,99544.94
2022-07-29T07:31:21.167Z,99541.47
2022-07-29T07:33:48.284Z,99547.25
2022-07-29T07:36:15.541Z,99548.50
2022-07-29T07:38:42.635Z,99554.47
2022-07-29T07:41:09.569Z,99555.44
2022-07-29T07:43:36.960Z,99552.94
2022-07-29T07:46:04.036Z,99557.97
2022-07-29T07:48:31.216Z,99552.75
2022-07-29T07:51:00.726Z,99559.56
2022-07-29T07:53:28.086Z,99552.34
2022-07-29T07:56:12.254Z,99555.81
2022-07-29T07:58:40.839Z,99566.03
2022-07-29T08:01:10.795Z,99559.72
2022-07-29T08:03:38.515Z,99576.03
2022-07-29T08:06:06.503Z,99576.16
2022-07-29T08:08:33.837Z,99578.06
2022-07-29T08:11:08.340Z,99580.50
2022-07-29T08:13:39.808Z,99568.78
2022-07-29T08:16:16.102Z,99577.81
2022-07-29T08:18:46.775Z,99585.06
2022-07-29T08:21:16.093Z,99584.16
2022-07-29T08:24:15.508Z,99583.56
2022-07-29T08:26:44.064Z,99589.16
2022-07-29T08:29:11.208Z,99591.56
2022-07-29T08:31:39.132Z,99594.28
2022-07-29T08:34:08.894Z,99596.84
2022-07-29T08:36:36.279Z,99592.78
2022-07-29T08:39:04.578Z,99593.97
2022-07-29T08:41:32.457Z,99595.66
2022-07-29T08:43:59.529Z,99604.38
2022-07-29T08:46:26.568Z,99604.16
2022-07-29T08:48:53.915Z,99611.31
2022-07-29T08:51:22.314Z,99613.38
2022-07-29T08:53:51.274Z,99610.38
2022-07-29T08:56:20.465Z,99607.28
2022-07-29T08:58:51.897Z,99596.53
2022-07-29T09:01:36.511Z,99606.19
2022-07-29T09:04:12.679Z,99597.19
2022-07-29T09:06:45.114Z,99596.28
2022-07-29T09:09:16.021Z,99596.00
2022-07-29T09:11:43.698Z,99589.63
2022-07-29T09:14:13.433Z,99593.63
2022-07-29T09:16:53.119Z,99585.66
2022-07-29T09:19:32.112Z,99592.94
2022-07-29T09:22:03.702Z,99590.03
2022-07-29T09:24:48.649Z,99576.94
2022-07-29T09:27:23.200Z,99576.13
2022-07-29T09:30:08.244Z,99576.69
2022-07-29T09:32:59.280Z,99574.31
2022-07-29T09:35:28.050Z,99572.91
2022-07-29T09:37:55.423Z,99582.16
2022-07-29T09:40:29.266Z,99574.75
2022-07-29T09:42:58.308Z,99573.06
2022-07-29T09:45:35.619Z,99583.84
2022-07-29T09:48:23.443Z,99583.19
2022-07-29T09:50:51.540Z,99594.81
2022-07-29T09:53:35.508Z,99582.41
2022-07-29T09:56:02.919Z,99594.66
2022-07-29T09:58:30.279Z,99594.72
2022-07-29T10:01:00.127Z,99583.22
2022-07-29T10:03:27.533Z,99579.78
2022-07-29T10:06:09.806Z,99584.44
2022-07-29T10:08:37.837Z,99580.47
2022-07-29T10:11:23.312Z,99580.06
2022-07-29T10:13:50.462Z,99577.31
2022-07-29T10:16:19.038Z,99572.56
2022-07-29T10:18:48.506Z,99575.66
2022-07-29T10:21:34.546Z,99577.63
2022-07-29T10:24:03.596Z,99567.31
2022-07-29T10:26:31.522Z,99564.88
2022-07-29T10:28:58.729Z,99560.31
2022-07-29T10:31:35.881Z,99568.47
2022-07-29T10:34:18.683Z,99561.69
2022-07-29T10:37:02.673Z,99563.50
2022-07-29T10:39:45.184Z,99566.72
2022-07-29T10:42:29.748Z,99571.41
2022-07-29T10:45:04.835Z,99565.59
2022-07-29T10:47:35.710Z,99563.47
2022-07-29T10:50:06.114Z,99565.63
2022-07-29T10:52:53.647Z,99569.44
2022-07-29T10:55:37.653Z,99561.66
2022-07-29T10:58:19.017Z,99556.59
2022-07-29T11:00:56.333Z,99547.78
2022-07-29T11:03:48.919Z,99547.66
2022-07-29T11:06:17.997Z,99545.56
2022-07-29T11:09:20.178Z,99534.09
2022-07-29T11:11:51.623Z,99538.41
2022-07-29T11:14:42.028Z,99538.00
2022-07-29T11:17:14.022Z,99534.66
2022-07-29T11:19:46.793Z,99535.13
2022-07-29T11:22:34.661Z,99529.69
2022-07-29T11:25:19.329Z,99526.41
2022-07-29T11:28:22.949Z,99531.09
2022-07-29T11:31:10.736Z,99530.91
2022-07-29T11:33:56.386Z,99529.41
2022-07-29T11:36:28.369Z,99521.34
2022-07-29T11:39:26.689Z,99519.72
2022-07-29T11:42:30.478Z,99520.16
2022-07-29T11:45:43.140Z,99521.97
2022-07-29T11:48:05.216Z,99509.06
2022-07-29T11:50:49.331Z,99510.00
2022-07-29T11:53:17.303Z,99513.13
2022-07-29T11:55:58.461Z,99504.28
2022-07-29T11:58:27.672Z,99503.72
2022-07-29T12:00:58.090Z,99501.28
2022-07-29T12:03:34.937Z,99489.88
2022-07-29T12:06:15.134Z,99492.72
2022-07-29T12:08:44.613Z,99485.84
2022-07-29T12:11:21.877Z,99479.38
2022-07-29T12:13:52.860Z,99475.56
2022-07-29T12:16:25.402Z,99467.81
2022-07-29T12:19:04.189Z,99472.00
2022-07-29T12:21:56.967Z,99477.28
2022-07-29T12:24:27.390Z,99472.44
2022-07-29T12:26:59.809Z,99477.97
2022-07-29T12:29:34.557Z,99479.97
2022-07-29T12:32:04.190Z,99476.34
2022-07-29T12:34:32.485Z,99467.75
2022-07-29T12:37:00.133Z,99471.69
2022-07-29T12:39:29.906Z,99467.72
2022-07-29T12:41:57.564Z,99472.28
2022-07-29T12:44:44.795Z,99466.78
2022-07-29T12:47:14.753Z,99460.50
2022-07-29T12:49:44.035Z,99460.34
2022-07-29T12:52:32.903Z,99454.94
2022-07-29T12:55:00.541Z,99459.19
2022-07-29T12:57:28.579Z,99448.50
2022-07-29T13:00:06.521Z,99449.91
2022-07-29T13:02:33.809Z,99452.34
2022-07-29T13:05:05.208Z,99443.66
2022-07-29T13:07:53.999Z,99449.91
2022-07-29T13:10:24.270Z,99441.44
2022-07-29T13:13:14.828Z,99438.16
2022-07-29T13:15:49.970Z,99442.69
2022-07-29T13:18:29.325Z,99434.84
2022-07-29T13:20:56.914Z,99444.56
2022-07-29T13:23:24.288Z,99449.44
2022-07-29T13:25:51.379Z,99444.13
2022-07-29T13:28:18.690Z,99439.66
2022-07-29T13:30:50.857Z,99445.50
2022-07-29T13:33:17.974Z,99435.16
2022-07-29T13:35:48.583Z,99437.72
2022-07-29T13:38:15.655Z,99435.97
2022-07-29T13:40:45.393Z,99434.97
2022-07-29T13:43:13.301Z,99436.88
2022-07-29T13:45:40.435Z,99436.34
2022-07-29T13:48:09.797Z,99433.19
2022-07-29T13:50:37.319Z,99430.75
2022-07-29T13:53:05.106Z,99441.41
2022-07-29T13:55:34.586Z,99446.22
2022-07-29T13:58:02.182Z,99443.41
2022-07-29T14:00:33.632Z,99448.44
2022-07-29T14:03:00.849Z,99440.69
2022-07-29T14:05:28.150Z,99446.06
2022-07-29T14:07:55.129Z,99456.25
2022-07-29T14:10:22.199Z,99455.50
2022-07-29T14:12:49.417Z,99453.69
2022-07-29T14:15:16.483Z,99468.66
2022-07-29T14:17:43.514Z,99468.72
2022-07-29T14:20:12.954Z,99471.41
2022-07-29T14:22:42.704Z,99474.84
2022-07-29T14:25:14.713Z,99476.16
2022-07-29T14:27:44.229Z,99490.31
2022-07-29T14:30:11.649Z,99484.19
2022-07-29T14:32:38.695Z,99478.75
2022-07-29T14:35:07.211Z,99484.88
2022-07-29T14:37:39.945Z,99487.50
2022-07-29T14:40:09.901Z,99490.25
2022-07-29T14:42:39.982Z,99481.78
2022-07-29T14:45:11.373Z,99491.91
2022-07-29T14:47:39.597Z,99488.53
2022-07-29T14:50:07.534Z,99484.91
2022-07-29T14:52:34.942Z,99484.09
2022-07-29T14:55:06.025Z,99477.91
2022-07-29T14:57:45.353Z,99469.03
2022-07-29T15:00:13.699Z,99460.59
2022-07-29T15:03:00.977Z,99452.13
2022-07-29T15:05:31.150Z,99440.41
2022-07-29T15:07:59.962Z,99439.06
2022-07-29T15:10:32.487Z,99438.94
2022-07-29T15:13:02.272Z,99438.47
2022-07-29T15:15:29.406Z,99425.44
2022-07-29T15:18:00.124Z,99429.41
2022-07-29T15:20:30.034Z,99417.78
2022-07-29T15:22:57.470Z,99420.16
2022-07-29T15:25:25.619Z,99416.84
2022-07-29T15:28:00.558Z,99411.88
2022-07-29T15:30:33.600Z,99416.22
2022-07-29T15:33:06.394Z,99406.41
2022-07-29T15:35:33.646Z,99405.69
2022-07-29T15:38:08.368Z,99396.25
2022-07-29T15:40:35.626Z,99388.06
2022-07-29T15:43:06.735Z,99384.28
2022-07-29T15:45:40.176Z,99376.44
2022-07-29T15:48:14.636Z,99367.88
2022-07-29T15:50:42.309Z,99365.47
2022-07-29T15:53:14.057Z,99354.75
2022-07-29T15:55:41.261Z,99351.47
2022-07-29T15:58:11.850Z,99343.78
2022-07-29T16:00:41.608Z,99347.78
2022-07-29T16:03:09.235Z,99346.59
2022-07-29T16:05:36.523Z,99341.03
2022-07-29T16:08:04.843Z,99338.13
2022-07-29T16:10:31.995Z,99345.84
2022-07-29T16:12:59.353Z,99342.72
2022-07-29T16:15:28.766Z,99339.91
2022-07-29T16:17:58.299Z,99340.19
2022-07-29T16:20:25.554Z,99338.84
2022-07-29T16:22:53.545Z,99339.97
2022-07-29T16:25:20.909Z,99341.56
2022-07-29T16:27:48.281Z,99345.13
2022-07-29T16:30:15.321Z,99346.00
2022-07-29T16:32:42.380Z,99339.25
2022-07-29T16:35:10.309Z,99336.78
2022-07-29T16:37:38.419Z,99345.38
2022-07-29T16:40:07.382Z,99348.06
2022-07-29T16:42:46.902Z,99350.69
2022-07-29T16:45:15.339Z,99350.78
2022-07-29T16:47:42.967Z,99345.00
2022-07-29T16:50:11.347Z,99345.88
2022-07-29T16:52:38.511Z,99353.22
2022-07-29T16:55:06.429Z,99346.00
2022-07-29T16:57:34.053Z,99335.88
2022-07-29T17:00:01.234Z,99333.56
2022-07-29T17:02:28.990Z,99338.59
2022-07-29T17:04:59.147Z,99336.50
2022-07-29T17:07:26.089Z,99342.53
2022-07-29T17:09:55.653Z,99334.81
2022-07-29T17:12:24.775Z,99336.13
2022-07-29T17:14:51.768Z,99341.47
2022-07-29T17:17:20.912Z,99340.97
2022-07-29T17:20:08.341Z,99340.22
2022-07-29T17:22:36.446Z,99336.16
2022-07-29T17:25:07.807Z,99332.34
2022-07-29T17:27:38.029Z,99336.56
2022-07-29T17:30:08.440Z,99329.78
2022-07-29T17:32:38.891Z,99340.22
2022-07-29T17:35:27.754Z,99346.13
2022-07-29T17:37:55.003Z,99343.16
2022-07-29T17:40:22.771Z,99347.84
2022-07-29T17:42:50.369Z,99341.94
2022-07-29T17:45:17.656Z,99344.03
2022-07-29T17:47:45.463Z,99347.47
2022-07-29T17:50:12.526Z,99347.47
2022-07-29T17:52:39.626Z,99350.78
2022-07-29T17:55:07.874Z,99346.38
2022-07-29T17:57:34.871Z,99342.94
2022-07-29T18:00:01.921Z,99337.53
2022-07-29T18:02:32.047Z,99335.09
2022-07-29T18:04:59.206Z,99334.56
2022-07-29T18:07:26.397Z,99327.69
2022-07-29T18:09:57.459Z,99325.81
2022-07-29T18:12:27.359Z,99323.94
2022-07-29T18:14:54.436Z,99336.94
2022-07-29T18:17:35.073Z,99323.81
2022-07-29T18:20:11.440Z,99335.31
2022-07-29T18:22:40.619Z,99330.28
2022-07-29T18:25:08.201Z,99352.47
2022-07-29T18:27:35.427Z,99351.78
2022-07-29T18:30:04.781Z,99355.44
2022-07-29T18:32:32.195Z,99353.59
2022-07-29T18:35:02.724Z,99354.66
2022-07-29T18:38:01.419Z,99361.25
2022-07-29T18:40:17.049Z,99358.00
2022-07-29T18:42:46.544Z,99366.44
2022-07-29T18:45:19.072Z,99365.56
2022-07-29T18:47:49.029Z,99362.81
2022-07-29T18:50:16.950Z,99364.38
2022-07-29T18:52:48.433Z,99351.22
2022-07-29T18:55:15.725Z,99350.94
2022-07-29T18:57:56.383Z,99342.34
2022-07-29T19:00:25.725Z,99339.66
2022-07-29T19:02:55.285Z,99342.56
2022-07-29T19:05:23.224Z,99345.84
2022-07-29T19:07:50.714Z,99341.22
2022-07-29T19:10:17.966Z,99345.69
2022-07-29T19:12:45.328Z,99341.84
2022-07-29T19:15:13.002Z,99339.25
2022-07-29T19:17:48.700Z,99348.00
2022-07-29T19:20:16.565Z,99342.09
2022-07-29T19:22:44.015Z,99358.13
2022-07-29T19:25:11.104Z,99352.91
2022-07-29T19:27:38.440Z,99349.94
2022-07-29T19:30:10.461Z,99363.00
2022-07-29T19:32:38.133Z,99360.78
2022-07-29T19:35:24.459Z,99362.47
2022-07-29T19:37:55.267Z,99370.19
2022-07-29T19:40:26.216Z,99361.31
2022-07-29T19:42:54.431Z,99360.47
2022-07-29T19:45:25.152Z,99362.06
2022-07-29T19:47:55.550Z,99360.31
2022-07-29T19:50:27.318Z,99361.97
2022-07-29T19:52:54.810Z,99364.94
2022-07-29T19:55:23.471Z,99370.00
2022-07-29T19:57:53.327Z,99375.47
2022-07-29T20:00:21.280Z,99382.72
2022-07-29T20:02:48.706Z,99376.22
2022-07-29T20:05:16.077Z,99380.94
2022-07-29T20:07:43.797Z,99366.75
2022-07-29T20:10:11.029Z,99376.38
2022-07-29T20:12:38.413Z,99383.78
2022-07-29T20:15:10.547Z,99386.00
2022-07-29T20:17:45.616Z,99400.66
2022-07-29T20:20:13.064Z,99406.72
2022-07-29T20:22:40.036Z,99412.03
2022-07-29T20:25:09.950Z,99418.25
2022-07-29T20:27:39.471Z,99408.75
2022-07-29T20:30:07.435Z,99408.34
2022-07-29T20:32:35.263Z,99411.25
2022-07-29T20:35:02.467Z,99407.56
2022-07-29T20:37:29.776Z,99403.28
2022-07-29T20:39:57.068Z,99404.75
2022-07-29T20:42:24.239Z,99403.88
2022-07-29T20:44:53.597Z,99401.66
2022-07-29T20:47:22.854Z,99398.09
2022-07-29T20:49:50.779Z,99401.94
2022-07-29T20:52:22.063Z,99396.63
2022-07-29T20:54:49.127Z,99395.72
2022-07-29T20:57:16.648Z,99392.78
2022-07-29T20:59:45.897Z,99393.22
2022-07-29T21:02:13.137Z,99394.53
2022-07-29T21:04:43.842Z,99390.25
2022-07-29T21:07:11.124Z,99388.75
2022-07-29T21:09:40.409Z,99383.72
2022-07-29T21:12:08.212Z,99380.75
2022-07-29T21:14:41.100Z,99374.88
2022-07-29T21:17:08.377Z,99366.44
2022-07-29T21:19:35.615Z,99364.94
2022-07-29T21:22:05.921Z,99365.69
2022-07-29T21:24:33.197Z,99363.47
2022-07-29T21:27:21.263Z,99359.34
2022-07-29T21:29:49.287Z,99361.56
2022-07-29T21:32:29.983Z,99371.75
2022-07-29T21:34:58.118Z,99361.41
2022-07-29T21:37:25.417Z,99363.47
2022-07-29T21:39:52.427Z,99364.78
2022-07-29T21:42:19.621Z,99356.38
2022-07-29T21:44:46.636Z,99352.25
2022-07-29T21:47:13.837Z,99355.66
2022-07-29T21:49:41.191Z,99359.47
2022-07-29T21:52:08.255Z,99353.13
2022-07-29T21:54:36.223Z,99347.50
2022-07-29T21:57:04.367Z,99348.66
2022-07-29T21:59:31.961Z,99345.00
2022-07-29T22:02:02.689Z,99348.22
2022-07-29T22:04:30.744Z,99354.44
2022-07-29T22:06:58.931Z,99351.03
2022-07-29T22:09:26.522Z,99350.13
2022-07-29T22:11:56.232Z,99345.13
2022-07-29T22:14:25.862Z,99332.84
2022-07-29T22:16:52.908Z,99337.13
2022-07-29T22:19:29.884Z,99332.09
2022-07-29T22:21:57.331Z,99330.63
2022-07-29T22:24:24.306Z,99331.78
2022-07-29T22:26:51.557Z,99338.91
2022-07-29T22:29:19.184Z,99333.13
2022-07-29T22:31:48.495Z,99345.38
2022-07-29T22:34:15.713Z,99348.19
2022-07-29T22:36:43.417Z,99346.13
2022-07-29T22:39:10.389Z,99344.97
2022-07-29T22:41:37.622Z,99346.84
2022-07-29T22:44:06.981Z,99346.69
2022-07-29T22:46:36.581Z,99348.34
2022-07-29T22:49:05.415Z,99345.38
2022-07-29T22:51:32.801Z,99335.63
2022-07-29T22:54:02.154Z,99335.63
2022-07-29T22:56:29.305Z,99337.13
2022-07-29T22:58:58.627Z,99336.97
2022-07-29T23:01:35.998Z,99347.91
2022-07-29T23:04:05.836Z,99352.78
2022-07-29T23:06:33.870Z,99347.75
2022-07-29T23:09:01.162Z,99347.59
2022-07-29T23:11:28.314Z,99347.59
2022-07-29T23:13:55.510Z,99344.22
2022-07-29T23:16:26.389Z,99345.81
2022-07-29T23:18:54.911Z,99345.81
2022-07-29T23:21:21.962Z,99353.09
2022-07-29T23:23:49.434Z,99358.88
2022-07-29T23:26:17.119Z,99373.03
2022-07-29T23:28:46.247Z,99366.53
2022-07-29T23:31:13.678Z,99376.44
2022-07-29T23:33:41.463Z,99386.50
2022-07-29T23:36:11.102Z,99390.34
2022-07-29T23:38:44.300Z,99395.81
2022-07-29T23:41:11.631Z,99387.53
2022-07-29T23:43:38.678Z,99388.44
2022-07-29T23:46:06.408Z,99408.97
2022-07-29T23:48:36.580Z,99410.44
2022-07-29T23:51:05.674Z,99407.78
2022-07-29T23:53:37.855Z,99409.44
2022-07-29T23:56:20.725Z,99409.13
2022-07-29T23:58:47.990Z,99412.09
